sensor_id;sensor_type;location;lat;lon;timestamp;pressure;altitude;pressure_sealevel;temperature;humidity
74181;BME280;62544;50.826;14.354;2023-02-15T00:02:41;100822.16;;;3.64;80.71
74181;BME280;62544;50.826;14.354;2023-02-15T00:06:57;100820.04;;;3.63;81.66
74181;BME280;62544;50.826;14.354;2023-02-15T00:11:14;100817.13;;;3.66;80.48
74181;BME280;62544;50.826;14.354;2023-02-15T00:15:29;100813.50;;;3.72;80.11
74181;BME280;62544;50.826;14.354;2023-02-15T00:19:45;100809.63;;;3.74;80.46
74181;BME280;62544;50.826;14.354;2023-02-15T00:24:02;100805.30;;;3.66;82.23
74181;BME280;62544;50.826;14.354;2023-02-15T00:28:17;100801.58;;;3.52;83.50
74181;BME280;62544;50.826;14.354;2023-02-15T00:32:33;100796.28;;;3.40;83.66
74181;BME280;62544;50.826;14.354;2023-02-15T00:36:49;100791.77;;;3.38;82.51
74181;BME280;62544;50.826;14.354;2023-02-15T00:41:06;100787.56;;;3.39;81.78
74181;BME280;62544;50.826;14.354;2023-02-15T00:45:21;100782.72;;;3.37;82.71
74181;BME280;62544;50.826;14.354;2023-02-15T00:49:37;100779.97;;;3.36;82.46
74181;BME280;62544;50.826;14.354;2023-02-15T00:53:53;100777.70;;;3.42;81.29
74181;BME280;62544;50.826;14.354;2023-02-15T00:58:09;100776.32;;;3.43;81.36
74181;BME280;62544;50.826;14.354;2023-02-15T01:02:25;100775.84;;;3.43;81.43
74181;BME280;62544;50.826;14.354;2023-02-15T01:06:41;100776.11;;;3.33;83.10
74181;BME280;62544;50.826;14.354;2023-02-15T01:11:02;100775.53;;;3.24;83.44
74181;BME280;62544;50.826;14.354;2023-02-15T01:15:13;100775.56;;;3.15;83.85
74181;BME280;62544;50.826;14.354;2023-02-15T01:19:29;100775.18;;;3.11;83.12
74181;BME280;62544;50.826;14.354;2023-02-15T01:23:45;100773.78;;;3.08;83.44
74181;BME280;62544;50.826;14.354;2023-02-15T01:28:01;100772.11;;;3.07;82.93
74181;BME280;62544;50.826;14.354;2023-02-15T01:32:17;100768.59;;;3.05;82.71
74181;BME280;62544;50.826;14.354;2023-02-15T01:36:33;100763.76;;;3.00;83.58
74181;BME280;62544;50.826;14.354;2023-02-15T01:40:52;100760.14;;;3.00;83.15
74181;BME280;62544;50.826;14.354;2023-02-15T01:49:21;100752.43;;;3.03;83.13
74181;BME280;62544;50.826;14.354;2023-02-15T01:53:42;100749.95;;;3.05;82.44
74181;BME280;62544;50.826;14.354;2023-02-15T01:57:54;100747.20;;;3.04;83.13
74181;BME280;62544;50.826;14.354;2023-02-15T02:02:09;100742.74;;;3.08;82.26
74181;BME280;62544;50.826;14.354;2023-02-15T02:06:26;100738.87;;;3.07;82.63
74181;BME280;62544;50.826;14.354;2023-02-15T02:10:41;100734.94;;;3.10;82.26
74181;BME280;62544;50.826;14.354;2023-02-15T02:14:57;100732.48;;;3.02;84.17
74181;BME280;62544;50.826;14.354;2023-02-15T02:19:37;100729.32;;;2.98;83.64
74181;BME280;62544;50.826;14.354;2023-02-15T02:27:49;100719.61;;;2.97;83.34
74181;BME280;62544;50.826;14.354;2023-02-15T02:32:24;100716.04;;;2.91;84.02
74181;BME280;62544;50.826;14.354;2023-02-15T02:40:43;100709.80;;;2.91;83.57
74181;BME280;62544;50.826;14.354;2023-02-15T02:49:05;100703.23;;;2.81;84.50
74181;BME280;62544;50.826;14.354;2023-02-15T02:53:21;100700.22;;;2.76;84.63
74181;BME280;62544;50.826;14.354;2023-02-15T02:57:38;100697.13;;;2.72;84.99
74181;BME280;62544;50.826;14.354;2023-02-15T03:01:55;100695.36;;;2.70;84.31
74181;BME280;62544;50.826;14.354;2023-02-15T03:06:13;100693.31;;;2.70;83.96
74181;BME280;62544;50.826;14.354;2023-02-15T03:10:25;100691.30;;;2.64;85.57
74181;BME280;62544;50.826;14.354;2023-02-15T03:14:41;100689.62;;;2.63;84.89
74181;BME280;62544;50.826;14.354;2023-02-15T03:19:01;100687.02;;;2.68;83.36
74181;BME280;62544;50.826;14.354;2023-02-15T03:23:14;100685.21;;;2.71;83.78
74181;BME280;62544;50.826;14.354;2023-02-15T03:27:33;100684.23;;;2.69;84.43
74181;BME280;62544;50.826;14.354;2023-02-15T03:31:45;100681.93;;;2.66;84.80
74181;BME280;62544;50.826;14.354;2023-02-15T03:36:06;100678.98;;;2.63;84.83
74181;BME280;62544;50.826;14.354;2023-02-15T03:40:24;100676.76;;;2.63;84.51
74181;BME280;62544;50.826;14.354;2023-02-15T03:44:35;100674.30;;;2.63;84.82
74181;BME280;62544;50.826;14.354;2023-02-15T03:48:53;100671.84;;;2.63;84.71
74181;BME280;62544;50.826;14.354;2023-02-15T03:53:06;100670.67;;;2.65;84.43
74181;BME280;62544;50.826;14.354;2023-02-15T03:57:22;100670.26;;;2.63;84.90
74181;BME280;62544;50.826;14.354;2023-02-15T04:01:38;100668.72;;;2.55;85.85
74181;BME280;62544;50.826;14.354;2023-02-15T04:05:53;100667.60;;;2.51;85.76
74181;BME280;62544;50.826;14.354;2023-02-15T04:10:09;100666.69;;;2.51;84.86
74181;BME280;62544;50.826;14.354;2023-02-15T04:14:25;100666.13;;;2.48;85.60
74181;BME280;62544;50.826;14.354;2023-02-15T04:18:41;100665.64;;;2.51;84.67
74181;BME280;62544;50.826;14.354;2023-02-15T04:22:57;100665.20;;;2.53;84.54
74181;BME280;62544;50.826;14.354;2023-02-15T04:27:13;100664.33;;;2.54;84.46
74181;BME280;62544;50.826;14.354;2023-02-15T04:31:29;100663.42;;;2.57;84.15
74181;BME280;62544;50.826;14.354;2023-02-15T04:35:45;100660.38;;;2.54;85.21
74181;BME280;62544;50.826;14.354;2023-02-15T04:40:01;100660.00;;;2.47;85.98
74181;BME280;62544;50.826;14.354;2023-02-15T04:44:17;100658.89;;;2.40;86.53
74181;BME280;62544;50.826;14.354;2023-02-15T04:48:33;100658.40;;;2.35;86.40
74181;BME280;62544;50.826;14.354;2023-02-15T04:52:49;100657.62;;;2.29;87.16
74181;BME280;62544;50.826;14.354;2023-02-15T04:57:05;100656.00;;;2.25;87.17
74181;BME280;62544;50.826;14.354;2023-02-15T05:01:21;100654.92;;;2.22;87.13
74181;BME280;62544;50.826;14.354;2023-02-15T05:05:37;100653.11;;;2.21;86.57
74181;BME280;62544;50.826;14.354;2023-02-15T05:09:53;100651.07;;;2.24;85.55
74181;BME280;62544;50.826;14.354;2023-02-15T05:14:09;100651.23;;;2.22;86.60
74181;BME280;62544;50.826;14.354;2023-02-15T05:18:25;100650.42;;;2.22;85.88
74181;BME280;62544;50.826;14.354;2023-02-15T05:22:41;100649.33;;;2.28;84.69
74181;BME280;62544;50.826;14.354;2023-02-15T05:26:57;100647.79;;;2.32;84.64
74181;BME280;62544;50.826;14.354;2023-02-15T05:31:13;100645.31;;;2.29;85.97
74181;BME280;62544;50.826;14.354;2023-02-15T05:35:29;100644.11;;;2.22;86.23
74181;BME280;62544;50.826;14.354;2023-02-15T05:39:45;100642.88;;;2.20;86.34
74181;BME280;62544;50.826;14.354;2023-02-15T05:44:01;100641.53;;;2.15;86.42
74181;BME280;62544;50.826;14.354;2023-02-15T05:48:17;100640.66;;;2.12;86.64
74181;BME280;62544;50.826;14.354;2023-02-15T05:52:33;100641.89;;;2.09;86.61
74181;BME280;62544;50.826;14.354;2023-02-15T05:56:49;100642.64;;;2.05;86.96
74181;BME280;62544;50.826;14.354;2023-02-15T06:01:11;100643.69;;;1.99;87.39
74181;BME280;62544;50.826;14.354;2023-02-15T06:05:21;100645.14;;;1.98;86.70
74181;BME280;62544;50.826;14.354;2023-02-15T06:09:37;100646.82;;;1.95;86.59
74181;BME280;62544;50.826;14.354;2023-02-15T06:13:53;100648.16;;;1.93;86.35
74181;BME280;62544;50.826;14.354;2023-02-15T06:18:09;100649.81;;;1.91;86.55
74181;BME280;62544;50.826;14.354;2023-02-15T06:22:25;100651.03;;;1.90;86.87
74181;BME280;62544;50.826;14.354;2023-02-15T06:26:41;100652.62;;;1.92;85.92
74181;BME280;62544;50.826;14.354;2023-02-15T06:30:57;100652.56;;;1.95;85.41
74181;BME280;62544;50.826;14.354;2023-02-15T06:35:13;100652.67;;;1.96;85.71
74181;BME280;62544;50.826;14.354;2023-02-15T06:39:29;100656.04;;;1.96;86.23
74181;BME280;62544;50.826;14.354;2023-02-15T06:43:45;100657.21;;;1.94;86.10
74181;BME280;62544;50.826;14.354;2023-02-15T06:48:01;100658.18;;;1.94;86.21
74181;BME280;62544;50.826;14.354;2023-02-15T06:52:17;100659.03;;;1.93;86.07
74181;BME280;62544;50.826;14.354;2023-02-15T06:56:33;100660.30;;;1.93;86.04
74181;BME280;62544;50.826;14.354;2023-02-15T07:00:48;100661.36;;;1.98;85.34
74181;BME280;62544;50.826;14.354;2023-02-15T07:05:05;100661.14;;;1.97;86.07
74181;BME280;62544;50.826;14.354;2023-02-15T07:09:21;100660.80;;;1.94;86.51
74181;BME280;62544;50.826;14.354;2023-02-15T07:13:36;100661.81;;;1.93;86.17
74181;BME280;62544;50.826;14.354;2023-02-15T07:17:52;100663.09;;;1.94;85.71
74181;BME280;62544;50.826;14.354;2023-02-15T07:22:08;100663.94;;;2.00;84.90
74181;BME280;62544;50.826;14.354;2023-02-15T07:26:25;100664.90;;;2.04;84.49
74181;BME280;62544;50.826;14.354;2023-02-15T07:30:40;100665.67;;;2.05;84.92
74181;BME280;62544;50.826;14.354;2023-02-15T07:34:57;100666.46;;;2.08;84.61
74181;BME280;62544;50.826;14.354;2023-02-15T07:39:12;100665.56;;;2.08;84.93
74181;BME280;62544;50.826;14.354;2023-02-15T07:43:29;100664.92;;;2.04;85.83
74181;BME280;62544;50.826;14.354;2023-02-15T07:47:44;100664.00;;;2.06;84.80
74181;BME280;62544;50.826;14.354;2023-02-15T07:52:01;100663.19;;;2.06;85.06
74181;BME280;62544;50.826;14.354;2023-02-15T07:56:16;100660.31;;;2.11;84.16
74181;BME280;62544;50.826;14.354;2023-02-15T08:00:32;100657.53;;;2.16;83.24
74181;BME280;62544;50.826;14.354;2023-02-15T08:04:48;100655.00;;;2.19;83.53
74181;BME280;62544;50.826;14.354;2023-02-15T08:09:05;100650.56;;;2.21;83.55
74181;BME280;62544;50.826;14.354;2023-02-15T08:13:20;100647.20;;;2.21;84.26
74181;BME280;62544;50.826;14.354;2023-02-15T08:17:36;100644.19;;;2.17;84.36
74181;BME280;62544;50.826;14.354;2023-02-15T08:21:56;100642.19;;;2.13;84.98
74181;BME280;62544;50.826;14.354;2023-02-15T08:26:09;100640.14;;;2.15;84.11
74181;BME280;62544;50.826;14.354;2023-02-15T08:30:24;100638.18;;;2.16;83.78
74181;BME280;62544;50.826;14.354;2023-02-15T08:34:41;100634.17;;;2.16;83.46
74181;BME280;62544;50.826;14.354;2023-02-15T08:38:57;100631.56;;;2.09;84.90
74181;BME280;62544;50.826;14.354;2023-02-15T08:43:13;100628.01;;;2.08;84.12
74181;BME280;62544;50.826;14.354;2023-02-15T08:47:29;100624.91;;;2.11;83.50
74181;BME280;62544;50.826;14.354;2023-02-15T08:51:45;100620.89;;;2.11;84.08
74181;BME280;62544;50.826;14.354;2023-02-15T08:56:01;100617.30;;;2.10;84.31
74181;BME280;62544;50.826;14.354;2023-02-15T09:00:17;100615.72;;;2.13;83.25
74181;BME280;62544;50.826;14.354;2023-02-15T09:04:33;100615.33;;;2.19;82.67
74181;BME280;62544;50.826;14.354;2023-02-15T09:08:49;100613.98;;;2.23;82.53
74181;BME280;62544;50.826;14.354;2023-02-15T09:13:05;100610.99;;;2.22;83.23
74181;BME280;62544;50.826;14.354;2023-02-15T09:17:21;100609.80;;;2.25;83.13
74181;BME280;62544;50.826;14.354;2023-02-15T09:21:37;100608.33;;;2.28;83.04
74181;BME280;62544;50.826;14.354;2023-02-15T09:25:53;100607.42;;;2.30;82.66
74181;BME280;62544;50.826;14.354;2023-02-15T09:30:09;100606.95;;;2.27;83.59
74181;BME280;62544;50.826;14.354;2023-02-15T09:34:25;100605.56;;;2.24;84.06
74181;BME280;62544;50.826;14.354;2023-02-15T09:38:41;100604.39;;;2.23;84.12
74181;BME280;62544;50.826;14.354;2023-02-15T09:43:13;100603.59;;;2.21;84.30
74181;BME280;62544;50.826;14.354;2023-02-15T09:51:42;100598.81;;;2.28;83.02
74181;BME280;62544;50.826;14.354;2023-02-15T09:55:48;100599.13;;;2.33;82.92
74181;BME280;62544;50.826;14.354;2023-02-15T10:00:13;100597.26;;;2.31;83.98
74181;BME280;62544;50.826;14.354;2023-02-15T10:04:20;100595.22;;;2.29;84.52
74181;BME280;62544;50.826;14.354;2023-02-15T10:08:51;100594.89;;;2.32;83.64
74181;BME280;62544;50.826;14.354;2023-02-15T10:12:54;100593.75;;;2.34;83.39
74181;BME280;62544;50.826;14.354;2023-02-15T10:21:31;100589.51;;;2.43;82.95
74181;BME280;62544;50.826;14.354;2023-02-15T10:30:10;100583.44;;;2.51;82.91
74181;BME280;62544;50.826;14.354;2023-02-15T10:34:19;100579.33;;;2.56;82.45
74181;BME280;62544;50.826;14.354;2023-02-15T10:47:17;100572.69;;;2.59;82.74
74181;BME280;62544;50.826;14.354;2023-02-15T10:51:26;100569.30;;;2.61;82.93
74181;BME280;62544;50.826;14.354;2023-02-15T10:59:58;100557.17;;;2.58;83.94
74181;BME280;62544;50.826;14.354;2023-02-15T11:08:17;100548.04;;;2.60;83.19
74181;BME280;62544;50.826;14.354;2023-02-15T11:12:33;100543.95;;;2.60;83.53
74181;BME280;62544;50.826;14.354;2023-02-15T11:16:51;100541.21;;;2.65;82.97
74181;BME280;62544;50.826;14.354;2023-02-15T11:21:24;100537.13;;;2.66;83.43
74181;BME280;62544;50.826;14.354;2023-02-15T11:25:25;100533.81;;;2.70;83.02
74181;BME280;62544;50.826;14.354;2023-02-15T11:29:38;100529.55;;;2.76;81.73
74181;BME280;62544;50.826;14.354;2023-02-15T11:34:06;100526.14;;;2.86;81.69
74181;BME280;62544;50.826;14.354;2023-02-15T11:38:14;100522.71;;;2.95;80.62
74181;BME280;62544;50.826;14.354;2023-02-15T11:42:25;100520.19;;;3.05;80.42
74181;BME280;62544;50.826;14.354;2023-02-15T11:46:41;100516.97;;;3.08;81.48
74181;BME280;62544;50.826;14.354;2023-02-15T11:50:57;100515.37;;;3.09;82.18
74181;BME280;62544;50.826;14.354;2023-02-15T11:55:14;100511.63;;;3.11;81.15
74181;BME280;62544;50.826;14.354;2023-02-15T11:59:32;100509.88;;;3.12;81.80
74181;BME280;62544;50.826;14.354;2023-02-15T12:03:55;100507.12;;;3.17;80.85
74181;BME280;62544;50.826;14.354;2023-02-15T12:08:09;100504.64;;;3.14;82.32
74181;BME280;62544;50.826;14.354;2023-02-15T12:12:21;100502.08;;;3.12;81.70
74181;BME280;62544;50.826;14.354;2023-02-15T12:16:40;100498.80;;;3.13;81.14
74181;BME280;62544;50.826;14.354;2023-02-15T12:20:49;100495.92;;;3.22;79.64
74181;BME280;62544;50.826;14.354;2023-02-15T12:25:26;100492.43;;;3.30;79.41
74181;BME280;62544;50.826;14.354;2023-02-15T12:29:21;100487.41;;;3.33;79.30
74181;BME280;62544;50.826;14.354;2023-02-15T12:33:43;100483.01;;;3.37;79.04
74181;BME280;62544;50.826;14.354;2023-02-15T12:37:53;100478.83;;;3.37;79.13
74181;BME280;62544;50.826;14.354;2023-02-15T12:42:15;100474.36;;;3.29;80.98
74181;BME280;62544;50.826;14.354;2023-02-15T12:46:26;100471.41;;;3.21;80.81
74181;BME280;62544;50.826;14.354;2023-02-15T12:50:42;100467.71;;;3.20;80.58
74181;BME280;62544;50.826;14.354;2023-02-15T12:55:09;100462.52;;;3.22;80.19
74181;BME280;62544;50.826;14.354;2023-02-15T12:59:13;100458.13;;;3.24;80.02
74181;BME280;62544;50.826;14.354;2023-02-15T13:03:29;100454.66;;;3.21;80.95
74181;BME280;62544;50.826;14.354;2023-02-15T13:07:46;100450.10;;;3.26;79.88
74181;BME280;62544;50.826;14.354;2023-02-15T13:12:11;100446.39;;;3.29;79.59
74181;BME280;62544;50.826;14.354;2023-02-15T13:16:17;100442.94;;;3.39;77.71
74181;BME280;62544;50.826;14.354;2023-02-15T13:20:34;100437.54;;;3.46;77.20
74181;BME280;62544;50.826;14.354;2023-02-15T13:24:59;100432.00;;;3.47;78.63
74181;BME280;62544;50.826;14.354;2023-02-15T13:29:06;100427.87;;;3.49;78.16
74181;BME280;62544;50.826;14.354;2023-02-15T13:38:02;100419.97;;;3.31;80.55
74181;BME280;62544;50.826;14.354;2023-02-15T13:46:19;100410.85;;;3.25;79.24
74181;BME280;62544;50.826;14.354;2023-02-15T13:50:31;100408.20;;;3.28;77.86
74181;BME280;62544;50.826;14.354;2023-02-15T14:03:20;100404.63;;;3.22;79.52
74181;BME280;62544;50.826;14.354;2023-02-15T14:07:33;100404.06;;;3.19;79.61
74181;BME280;62544;50.826;14.354;2023-02-15T14:16:08;100403.93;;;3.08;80.12
74181;BME280;62544;50.826;14.354;2023-02-15T14:20:20;100401.83;;;3.06;79.49
74181;BME280;62544;50.826;14.354;2023-02-15T14:24:43;100400.45;;;3.00;80.12
74181;BME280;62544;50.826;14.354;2023-02-15T14:33:14;100400.98;;;2.87;80.78
74181;BME280;62544;50.826;14.354;2023-02-15T14:37:27;100401.44;;;2.82;80.99
74181;BME280;62544;50.826;14.354;2023-02-15T14:41:39;100402.67;;;2.78;80.66
74181;BME280;62544;50.826;14.354;2023-02-15T14:45:58;100403.18;;;2.76;80.54
74181;BME280;62544;50.826;14.354;2023-02-15T15:02:57;100407.32;;;2.44;83.76
74181;BME280;62544;50.826;14.354;2023-02-15T15:15:46;100407.70;;;2.28;83.06
74181;BME280;62544;50.826;14.354;2023-02-15T15:20:02;100406.81;;;2.29;82.01
74181;BME280;62544;50.826;14.354;2023-02-15T15:32:52;100407.81;;;2.24;82.31
74181;BME280;62544;50.826;14.354;2023-02-15T15:49:56;100404.97;;;2.13;82.62
74181;BME280;62544;50.826;14.354;2023-02-15T15:54:14;100403.01;;;2.13;81.96
74181;BME280;62544;50.826;14.354;2023-02-15T15:58:25;100399.41;;;2.13;81.69
74181;BME280;62544;50.826;14.354;2023-02-15T16:02:51;100397.65;;;2.07;83.44
74181;BME280;62544;50.826;14.354;2023-02-15T16:06:58;100396.77;;;1.99;83.24
74181;BME280;62544;50.826;14.354;2023-02-15T16:11:14;100394.31;;;1.96;82.89
74181;BME280;62544;50.826;14.354;2023-02-15T16:15:35;100393.51;;;1.94;83.13
74181;BME280;62544;50.826;14.354;2023-02-15T16:19:45;100392.21;;;1.94;82.96
74181;BME280;62544;50.826;14.354;2023-02-15T16:28:17;100390.55;;;2.00;82.12
74181;BME280;62544;50.826;14.354;2023-02-15T16:32:33;100388.81;;;2.02;82.35
74181;BME280;62544;50.826;14.354;2023-02-15T16:36:49;100386.29;;;1.97;83.28
74181;BME280;62544;50.826;14.354;2023-02-15T16:41:05;100384.51;;;1.89;84.09
74181;BME280;62544;50.826;14.354;2023-02-15T16:45:22;100383.23;;;1.76;85.70
74181;BME280;62544;50.826;14.354;2023-02-15T16:49:37;100381.61;;;1.69;85.32
74181;BME280;62544;50.826;14.354;2023-02-15T16:53:53;100379.42;;;1.61;85.81
74181;BME280;62544;50.826;14.354;2023-02-15T16:58:13;100376.28;;;1.53;86.32
74181;BME280;62544;50.826;14.354;2023-02-15T17:02:26;100373.22;;;1.46;86.18
74181;BME280;62544;50.826;14.354;2023-02-15T17:06:41;100371.92;;;1.44;85.67
74181;BME280;62544;50.826;14.354;2023-02-15T17:15:32;100373.33;;;1.45;85.58
74181;BME280;62544;50.826;14.354;2023-02-15T17:19:30;100375.72;;;1.46;85.45
74181;BME280;62544;50.826;14.354;2023-02-15T17:23:46;100376.73;;;1.48;84.81
74181;BME280;62544;50.826;14.354;2023-02-15T17:28:01;100376.50;;;1.49;85.34
74181;BME280;62544;50.826;14.354;2023-02-15T17:32:20;100376.86;;;1.45;86.05
74181;BME280;62544;50.826;14.354;2023-02-15T17:36:33;100377.66;;;1.41;86.19
74181;BME280;62544;50.826;14.354;2023-02-15T17:40:49;100377.00;;;1.38;86.37
74181;BME280;62544;50.826;14.354;2023-02-15T17:45:05;100377.19;;;1.32;87.28
74181;BME280;62544;50.826;14.354;2023-02-15T17:49:24;100378.78;;;1.26;87.64
74181;BME280;62544;50.826;14.354;2023-02-15T17:53:37;100378.27;;;1.23;87.21
74181;BME280;62544;50.826;14.354;2023-02-15T17:57:53;100378.83;;;1.19;87.62
74181;BME280;62544;50.826;14.354;2023-02-15T18:02:09;100380.17;;;1.21;86.62
74181;BME280;62544;50.826;14.354;2023-02-15T18:06:25;100380.08;;;1.23;86.60
74181;BME280;62544;50.826;14.354;2023-02-15T18:10:41;100378.53;;;1.26;86.22
74181;BME280;62544;50.826;14.354;2023-02-15T18:14:57;100374.66;;;1.27;85.96
74181;BME280;62544;50.826;14.354;2023-02-15T18:19:31;100371.78;;;1.29;85.85
74181;BME280;62544;50.826;14.354;2023-02-15T18:23:29;100369.09;;;1.24;87.46
74181;BME280;62544;50.826;14.354;2023-02-15T18:27:45;100368.11;;;1.24;86.46
74181;BME280;62544;50.826;14.354;2023-02-15T18:32:07;100367.55;;;1.27;85.69
74181;BME280;62544;50.826;14.354;2023-02-15T18:36:25;100367.05;;;1.27;86.83
74181;BME280;62544;50.826;14.354;2023-02-15T18:40:33;100366.02;;;1.26;86.51
74181;BME280;62544;50.826;14.354;2023-02-15T18:44:49;100364.47;;;1.21;87.42
74181;BME280;62544;50.826;14.354;2023-02-15T18:49:05;100361.72;;;1.22;86.69
74181;BME280;62544;50.826;14.354;2023-02-15T18:53:21;100360.27;;;1.23;86.45
74181;BME280;62544;50.826;14.354;2023-02-15T18:57:37;100358.48;;;1.21;86.98
74181;BME280;62544;50.826;14.354;2023-02-15T19:01:53;100358.15;;;1.18;87.21
74181;BME280;62544;50.826;14.354;2023-02-15T19:06:10;100359.37;;;1.15;87.43
74181;BME280;62544;50.826;14.354;2023-02-15T19:10:25;100359.63;;;1.13;87.72
74181;BME280;62544;50.826;14.354;2023-02-15T19:14:41;100360.86;;;1.11;87.52
74181;BME280;62544;50.826;14.354;2023-02-15T19:18:57;100361.07;;;1.11;86.87
74181;BME280;62544;50.826;14.354;2023-02-15T19:23:14;100359.67;;;1.14;86.77
74181;BME280;62544;50.826;14.354;2023-02-15T19:27:32;100358.70;;;1.17;86.47
74181;BME280;62544;50.826;14.354;2023-02-15T19:31:45;100355.53;;;1.13;87.58
74181;BME280;62544;50.826;14.354;2023-02-15T19:36:01;100353.80;;;1.12;87.18
74181;BME280;62544;50.826;14.354;2023-02-15T19:40:18;100351.37;;;1.14;86.67
74181;BME280;62544;50.826;14.354;2023-02-15T19:44:33;100350.36;;;1.14;87.09
74181;BME280;62544;50.826;14.354;2023-02-15T19:48:49;100349.62;;;1.14;87.28
74181;BME280;62544;50.826;14.354;2023-02-15T19:53:05;100347.58;;;1.14;86.80
74181;BME280;62544;50.826;14.354;2023-02-15T19:57:22;100347.03;;;1.13;87.53
74181;BME280;62544;50.826;14.354;2023-02-15T20:01:37;100345.04;;;1.12;87.85
74181;BME280;62544;50.826;14.354;2023-02-15T20:05:53;100342.78;;;1.11;87.60
74181;BME280;62544;50.826;14.354;2023-02-15T20:10:16;100340.14;;;1.10;88.02
74181;BME280;62544;50.826;14.354;2023-02-15T20:14:25;100336.24;;;1.08;88.10
74181;BME280;62544;50.826;14.354;2023-02-15T20:18:41;100332.45;;;1.04;88.86
74181;BME280;62544;50.826;14.354;2023-02-15T20:22:57;100328.96;;;1.03;88.60
74181;BME280;62544;50.826;14.354;2023-02-15T20:27:16;100325.42;;;1.00;88.90
74181;BME280;62544;50.826;14.354;2023-02-15T20:31:29;100323.30;;;0.98;88.79
74181;BME280;62544;50.826;14.354;2023-02-15T20:35:45;100320.20;;;1.01;87.82
74181;BME280;62544;50.826;14.354;2023-02-15T20:40:01;100317.35;;;0.98;89.24
74181;BME280;62544;50.826;14.354;2023-02-15T20:44:21;100314.21;;;0.94;89.87
74181;BME280;62544;50.826;14.354;2023-02-15T20:48:33;100309.97;;;0.95;89.14
74181;BME280;62544;50.826;14.354;2023-02-15T20:52:49;100305.88;;;0.98;88.84
74181;BME280;62544;50.826;14.354;2023-02-15T20:57:07;100300.86;;;0.96;89.52
74181;BME280;62544;50.826;14.354;2023-02-15T21:01:21;100298.74;;;0.99;88.68
74181;BME280;62544;50.826;14.354;2023-02-15T21:05:37;100293.44;;;1.00;88.95
74181;BME280;62544;50.826;14.354;2023-02-15T21:09:53;100291.08;;;1.03;89.10
74181;BME280;62544;50.826;14.354;2023-02-15T21:14:14;100289.11;;;1.09;88.34
74181;BME280;62544;50.826;14.354;2023-02-15T21:18:29;100286.88;;;1.18;87.02
74181;BME280;62544;50.826;14.354;2023-02-15T21:22:41;100285.13;;;1.25;87.16
74181;BME280;62544;50.826;14.354;2023-02-15T21:26:57;100283.08;;;1.27;88.24
74181;BME280;62544;50.826;14.354;2023-02-15T21:31:20;100280.07;;;1.26;88.67
74181;BME280;62544;50.826;14.354;2023-02-15T21:35:29;100276.93;;;1.27;88.49
74181;BME280;62544;50.826;14.354;2023-02-15T21:39:45;100271.39;;;1.26;88.87
74181;BME280;62544;50.826;14.354;2023-02-15T21:44:01;100269.72;;;1.24;89.15
74181;BME280;62544;50.826;14.354;2023-02-15T21:48:17;100267.86;;;1.25;88.85
74181;BME280;62544;50.826;14.354;2023-02-15T21:52:33;100265.32;;;1.25;88.83
74181;BME280;62544;50.826;14.354;2023-02-15T21:56:49;100264.09;;;1.22;89.36
74181;BME280;62544;50.826;14.354;2023-02-15T22:01:05;100264.36;;;1.18;90.19
74181;BME280;62544;50.826;14.354;2023-02-15T22:05:22;100265.69;;;1.16;90.02
74181;BME280;62544;50.826;14.354;2023-02-15T22:09:37;100264.79;;;1.16;90.08
74181;BME280;62544;50.826;14.354;2023-02-15T22:13:53;100264.17;;;1.19;89.21
74181;BME280;62544;50.826;14.354;2023-02-15T22:18:17;100263.34;;;1.24;88.76
74181;BME280;62544;50.826;14.354;2023-02-15T22:22:25;100260.41;;;1.31;88.01
74181;BME280;62544;50.826;14.354;2023-02-15T22:26:41;100257.17;;;1.31;89.70
74181;BME280;62544;50.826;14.354;2023-02-15T22:30:57;100254.90;;;1.32;89.33
74181;BME280;62544;50.826;14.354;2023-02-15T22:35:18;100254.67;;;1.33;89.58
74181;BME280;62544;50.826;14.354;2023-02-15T22:39:29;100253.68;;;1.36;89.30
74181;BME280;62544;50.826;14.354;2023-02-15T22:43:45;100253.05;;;1.41;89.01
74181;BME280;62544;50.826;14.354;2023-02-15T22:48:01;100251.99;;;1.39;90.24
74181;BME280;62544;50.826;14.354;2023-02-15T22:52:17;100252.34;;;1.37;90.64
74181;BME280;62544;50.826;14.354;2023-02-15T22:56:34;100250.89;;;1.32;91.04
74181;BME280;62544;50.826;14.354;2023-02-15T23:00:49;100248.69;;;1.30;90.96
74181;BME280;62544;50.826;14.354;2023-02-15T23:05:05;100244.73;;;1.31;90.16
74181;BME280;62544;50.826;14.354;2023-02-15T23:09:21;100243.30;;;1.31;90.52
74181;BME280;62544;50.826;14.354;2023-02-15T23:13:37;100243.95;;;1.30;90.53
74181;BME280;62544;50.826;14.354;2023-02-15T23:17:53;100243.05;;;1.31;90.19
74181;BME280;62544;50.826;14.354;2023-02-15T23:22:11;100243.30;;;1.28;91.44
74181;BME280;62544;50.826;14.354;2023-02-15T23:26:26;100242.25;;;1.25;91.68
74181;BME280;62544;50.826;14.354;2023-02-15T23:30:41;100240.84;;;1.22;92.14
74181;BME280;62544;50.826;14.354;2023-02-15T23:34:57;100238.96;;;1.19;92.04
74181;BME280;62544;50.826;14.354;2023-02-15T23:39:17;100238.84;;;1.16;92.33
74181;BME280;62544;50.826;14.354;2023-02-15T23:43:29;100237.20;;;1.13;92.43
74181;BME280;62544;50.826;14.354;2023-02-15T23:47:45;100236.56;;;1.16;91.20
74181;BME280;62544;50.826;14.354;2023-02-15T23:52:01;100236.80;;;1.16;92.30
74181;BME280;62544;50.826;14.354;2023-02-15T23:56:17;100238.56;;;1.14;92.22
